Time;durP1;ratioP1;P1;durP2;ratioP2;P2;SDS_P1;SDS_P2;PMS_P1;PMS_P2;Temp;Humidity;BMP_temperature;BMP_pressure;BME280_temperature;BME280_humidity;BME280_pressure;Samples;Min_cycle;Max_cycle;Signal;HPM_P1;HPM_P2
2022/03/23 00:01:59;;;;;;;6.50;5.43;;;20.00;46.40;20.90;102175.00;;;;4986735;28;20720;-47
2022/03/23 00:04:25;;;;;;;6.20;5.60;;;19.90;46.40;20.90;102167.00;;;;4987006;28;20172;-46
2022/03/23 00:06:50;;;;;;;5.97;4.97;;;19.90;46.40;20.90;102172.00;;;;4986881;28;20514;-46
2022/03/23 00:09:16;;;;;;;6.00;5.40;;;19.90;46.40;20.80;102164.00;;;;4987133;28;20192;-46
2022/03/23 00:11:42;;;;;;;5.73;5.13;;;19.90;46.40;20.80;102160.00;;;;4985518;28;20172;-47
2022/03/23 00:14:09;;;;;;;5.80;5.30;;;19.90;46.50;20.80;102167.00;;;;4987601;28;20287;-47
2022/03/23 00:16:36;;;;;;;5.73;5.23;;;19.90;47.10;20.80;102162.00;;;;4986828;28;20230;-47
2022/03/23 00:19:03;;;;;;;5.53;4.97;;;19.80;46.50;20.80;102158.00;;;;4987321;28;20165;-46
2022/03/23 00:21:29;;;;;;;5.73;5.13;;;19.80;46.50;20.70;102164.00;;;;4986776;28;20716;-47
2022/03/23 00:23:55;;;;;;;7.57;5.10;;;19.80;46.50;20.70;102118.00;;;;4986859;28;20176;-47
2022/03/23 00:26:20;;;;;;;5.63;5.00;;;19.80;46.60;20.70;102166.00;;;;4986964;28;20187;-46
2022/03/23 00:28:46;;;;;;;5.00;4.60;;;19.80;46.60;20.70;102175.00;;;;4987096;28;20185;-46
2022/03/23 00:31:12;;;;;;;5.40;4.90;;;19.80;46.60;20.70;102162.00;;;;4986989;28;20184;-45
2022/03/23 00:33:37;;;;;;;5.57;5.07;;;19.70;46.60;20.60;102169.00;;;;4987017;28;20673;-44
2022/03/23 00:36:04;;;;;;;4.97;4.57;;;19.70;46.60;20.60;102175.00;;;;4986773;28;20251;-46
2022/03/23 00:38:30;;;;;;;5.50;5.00;;;19.70;46.60;20.60;102162.00;;;;4987146;28;20184;-47
2022/03/23 00:40:55;;;;;;;5.80;4.83;;;19.70;46.60;20.60;102156.00;;;;4989661;28;20169;-48
2022/03/23 00:43:21;;;;;;;5.00;4.60;;;19.70;46.60;20.50;102166.00;;;;4990115;28;20188;-46
2022/03/23 00:45:47;;;;;;;5.33;4.83;;;19.60;46.60;20.50;102162.00;;;;4990443;28;20184;-46
2022/03/23 00:48:13;;;;;;;5.73;4.87;;;19.60;46.60;20.50;102166.00;;;;4990270;28;20661;-47
2022/03/23 00:50:39;;;;;;;5.40;4.90;;;19.60;46.60;20.50;102164.00;;;;4990136;28;20679;-48
2022/03/23 00:53:06;;;;;;;5.40;4.90;;;19.60;46.60;20.40;102164.00;;;;4989713;28;20203;-48
2022/03/23 00:55:31;;;;;;;5.10;4.67;;;19.50;46.50;20.40;102166.00;;;;4990702;28;20185;-47
2022/03/23 00:57:57;;;;;;;5.40;5.00;;;19.50;46.60;20.40;102175.00;;;;4989902;28;20199;-47
2022/03/23 01:00:23;;;;;;;5.23;4.80;;;19.50;46.60;20.40;102172.00;;;;4990253;28;20176;-46
2022/03/23 01:02:49;;;;;;;4.67;4.27;;;19.50;46.70;20.40;102173.00;;;;4989676;28;20172;-45
2022/03/23 01:05:15;;;;;;;5.33;4.83;;;19.50;46.80;20.40;102182.00;;;;4989906;28;20255;-46
2022/03/23 01:07:41;;;;;;;5.10;4.70;;;19.50;46.80;20.40;102169.00;;;;4989816;28;20196;-47
2022/03/23 01:10:12;;;;;;;4.77;4.37;;;19.40;46.80;20.40;102166.00;;;;4989476;28;20262;-46
2022/03/23 01:12:39;;;;;;;5.17;4.60;;;19.40;46.80;20.30;102174.00;;;;4988567;28;20648;-47
2022/03/23 01:15:07;;;;;;;5.10;4.70;;;19.40;46.90;20.30;102164.00;;;;4990579;28;20534;-46
2022/03/23 01:17:32;;;;;;;4.80;4.40;;;19.40;46.80;20.30;102177.00;;;;4989584;28;20204;-46
2022/03/23 01:19:58;;;;;;;5.00;4.60;;;19.40;46.90;20.30;102162.00;;;;4989823;28;20199;-47
2022/03/23 01:22:24;;;;;;;4.87;4.47;;;19.40;46.90;20.20;102171.00;;;;4988907;28;20175;-46
2022/03/23 01:24:49;;;;;;;4.80;4.40;;;19.30;46.80;20.20;102166.00;;;;4989822;28;20176;-48
2022/03/23 01:27:15;;;;;;;4.90;4.50;;;19.30;46.90;20.20;102164.00;;;;4989482;28;20563;-46
2022/03/23 01:29:41;;;;;;;5.07;4.67;;;19.30;46.90;20.20;102166.00;;;;4989279;28;20177;-46
2022/03/23 01:32:08;;;;;;;5.13;4.73;;;19.30;47.00;20.20;102166.00;;;;4989250;28;20179;-46
2022/03/23 01:34:34;;;;;;;4.97;4.57;;;19.20;46.90;20.20;102171.00;;;;4989743;28;20197;-49
2022/03/23 01:36:59;;;;;;;4.70;4.30;;;19.30;47.50;20.10;102175.00;;;;4989345;28;20582;-46
2022/03/23 01:39:25;;;;;;;5.10;4.70;;;19.20;46.90;20.10;102160.00;;;;4989468;28;20751;-47
2022/03/23 01:41:51;;;;;;;4.97;4.57;;;19.20;47.60;20.10;102163.00;;;;4988546;28;20180;-46
2022/03/23 01:44:24;;;;;;;5.27;4.77;;;19.20;46.90;20.10;102160.00;;;;4989472;28;20180;-46
2022/03/23 01:47:10;;;;;;;4.67;4.33;;;19.20;46.90;20.10;102155.00;;;;4989280;28;20169;-47
2022/03/23 01:49:41;;;;;;;4.67;4.27;;;19.10;46.90;20.10;102156.00;;;;4988394;28;20167;-46
2022/03/23 01:52:09;;;;;;;5.03;4.63;;;19.10;46.90;20.00;102151.00;;;;4988776;28;20192;-47
2022/03/23 01:54:35;;;;;;;4.80;4.40;;;19.10;46.90;20.00;102153.00;;;;4987584;28;20204;-47
2022/03/23 01:57:02;;;;;;;4.57;4.17;;;19.10;46.90;20.00;102151.00;;;;4988879;28;20192;-46
2022/03/23 01:59:28;;;;;;;4.73;4.33;;;19.10;46.90;19.90;102144.00;;;;4988012;28;20184;-47
2022/03/23 02:01:54;;;;;;;4.67;4.30;;;19.10;46.90;19.90;102160.00;;;;4987758;28;20234;-46
2022/03/23 02:04:19;;;;;;;4.90;4.50;;;19.00;46.80;19.90;102158.00;;;;4988887;28;20208;-46
2022/03/23 02:06:46;;;;;;;4.80;4.40;;;19.00;47.00;19.90;102154.00;;;;4988544;28;20178;-46
2022/03/23 02:09:12;;;;;;;4.50;4.10;;;19.10;46.90;19.90;102162.00;;;;4988792;28;20222;-46
2022/03/23 02:11:38;;;;;;;4.50;4.20;;;19.00;46.90;19.80;102163.00;;;;4989346;28;20173;-45
2022/03/23 02:14:03;;;;;;;4.50;4.20;;;19.00;46.90;19.80;102146.00;;;;4989547;28;20819;-47
2022/03/23 02:16:29;;;;;;;4.80;4.40;;;19.00;47.00;19.80;102152.00;;;;4989966;28;20199;-47
2022/03/23 02:18:55;;;;;;;4.43;4.13;;;18.90;46.90;19.80;102155.00;;;;4989187;28;20191;-46
2022/03/23 02:21:21;;;;;;;4.77;4.37;;;18.90;46.90;19.80;102149.00;;;;4988775;28;20171;-47
2022/03/23 02:23:46;;;;;;;4.80;4.40;;;18.90;46.90;19.80;102157.00;;;;4988634;28;20184;-47
2022/03/23 02:26:12;;;;;;;5.00;4.60;;;18.90;47.00;19.70;102161.00;;;;4988605;28;20576;-48
2022/03/23 02:28:38;;;;;;;4.13;3.83;;;18.90;47.10;19.70;102153.00;;;;4987441;28;20198;-46
2022/03/23 02:31:04;;;;;;;5.00;4.53;;;18.90;47.10;19.70;102160.00;;;;4986567;28;20202;-49
2022/03/23 02:33:29;;;;;;;4.60;4.20;;;18.80;47.00;19.70;102154.00;;;;4988012;28;20562;-46
2022/03/23 02:35:55;;;;;;;4.70;4.30;;;18.80;47.00;19.70;102152.00;;;;4988256;28;20175;-44
2022/03/23 02:38:21;;;;;;;4.40;4.00;;;18.80;47.10;19.70;102154.00;;;;4988238;28;20196;-46
2022/03/23 02:40:47;;;;;;;4.60;4.30;;;18.80;47.00;19.60;102163.00;;;;4988029;28;20605;-47
2022/03/23 02:43:13;;;;;;;4.60;4.20;;;18.80;47.00;19.60;102144.00;;;;4987614;28;20537;-45
2022/03/23 02:45:39;;;;;;;4.50;4.10;;;18.70;46.90;19.60;102145.00;;;;4987964;28;20200;-47
2022/03/23 02:48:06;;;;;;;4.40;4.00;;;18.70;46.90;19.60;102139.00;;;;4988186;28;20227;-45
2022/03/23 02:50:35;;;;;;;4.83;4.43;;;18.70;47.00;19.60;102083.00;;;;4988177;28;20191;-47
2022/03/23 03:01:54;;;;;;;4.37;4.07;;;18.70;47.40;19.60;102139.00;;;;4988087;28;20754;-48
2022/03/23 03:04:21;;;;;;;4.13;3.73;;;18.60;47.30;19.50;102155.00;;;;4987841;28;20157;-47
2022/03/23 03:06:47;;;;;;;4.57;4.20;;;18.60;47.40;19.50;102151.00;;;;4987267;28;20170;-47
2022/03/23 03:09:14;;;;;;;4.70;4.30;;;18.60;47.40;19.50;102150.00;;;;4987110;28;20190;-47
2022/03/23 03:11:42;;;;;;;4.50;4.10;;;18.60;47.30;19.50;102087.00;;;;4987034;28;20191;-48
2022/03/23 03:14:08;;;;;;;4.30;4.00;;;18.50;47.30;19.50;102153.00;;;;4987915;28;20762;-47
2022/03/23 03:16:34;;;;;;;4.30;4.00;;;18.50;47.30;19.50;102147.00;;;;4987707;28;20230;-45
2022/03/23 03:18:59;;;;;;;4.13;3.83;;;18.50;47.30;19.50;102154.00;;;;4987615;28;20205;-47
2022/03/23 03:21:25;;;;;;;4.53;4.20;;;18.50;47.30;19.40;102095.00;;;;4986889;28;20180;-47
2022/03/23 03:23:51;;;;;;;4.30;4.00;;;18.50;47.20;19.40;102147.00;;;;4987469;28;20367;-47
2022/03/23 03:26:17;;;;;;;4.37;4.07;;;18.50;47.30;19.40;102155.00;;;;4987687;28;20641;-49
2022/03/23 03:28:43;;;;;;;4.50;4.20;;;18.50;47.20;19.40;102137.00;;;;4987666;28;20743;-48
2022/03/23 03:31:11;;;;;;;4.50;4.10;;;18.40;47.20;19.40;102141.00;;;;4987611;28;20227;-47
2022/03/23 03:33:37;;;;;;;4.53;4.23;;;18.40;47.20;19.40;102148.00;;;;4986669;28;20199;-47
2022/03/23 03:36:04;;;;;;;4.20;3.90;;;18.40;47.20;19.30;102149.00;;;;4987606;28;20281;-47
2022/03/23 03:38:30;;;;;;;4.57;4.20;;;18.40;47.30;19.30;102152.00;;;;4987646;28;20198;-47
2022/03/23 03:40:56;;;;;;;4.43;4.13;;;18.40;47.20;19.30;102143.00;;;;4987311;28;20223;-46
2022/03/23 03:43:24;;;;;;;4.13;3.83;;;18.40;47.30;19.30;102139.00;;;;4987627;28;20630;-47
2022/03/23 03:45:50;;;;;;;4.07;3.77;;;18.40;47.30;19.30;102145.00;;;;4987906;28;20168;-47
2022/03/23 03:48:17;;;;;;;4.23;3.93;;;18.40;47.50;19.30;102138.00;;;;4987054;28;20192;-46
2022/03/23 03:50:43;;;;;;;4.40;4.00;;;18.40;47.30;19.30;102143.00;;;;4987339;28;20167;-47
2022/03/23 03:53:08;;;;;;;4.40;4.00;;;18.30;47.20;19.20;102145.00;;;;4987187;28;20203;-48
2022/03/23 03:55:35;;;;;;;4.53;4.13;;;18.30;47.10;19.20;102142.00;;;;4987445;28;20246;-47
2022/03/23 03:58:01;;;;;;;4.40;3.80;;;18.30;47.10;19.20;102147.00;;;;4986079;28;20257;-48
2022/03/23 04:00:27;;;;;;;4.43;4.03;;;18.30;47.20;19.20;102153.00;;;;4987220;28;20176;-47
2022/03/23 04:02:53;;;;;;;4.40;4.10;;;18.20;47.00;19.20;102151.00;;;;4986874;28;20227;-46
2022/03/23 04:05:19;;;;;;;4.67;4.17;;;18.30;47.20;19.20;102158.00;;;;4987364;28;20695;-45
2022/03/23 04:07:44;;;;;;;4.00;3.70;;;18.30;47.20;19.10;102151.00;;;;4987134;28;20196;-46
2022/03/23 04:10:10;;;;;;;4.60;4.20;;;18.20;47.10;19.10;102154.00;;;;4987185;28;20180;-46
2022/03/23 04:12:36;;;;;;;4.33;4.03;;;18.20;47.10;19.10;102154.00;;;;4986607;28;20168;-46
2022/03/23 04:15:03;;;;;;;4.07;3.77;;;18.20;47.10;19.10;102154.00;;;;4991166;28;20222;-47
2022/03/23 04:17:28;;;;;;;4.10;3.80;;;18.20;47.10;19.10;102161.00;;;;4990818;28;20207;-46
2022/03/23 04:19:54;;;;;;;3.97;3.67;;;18.20;47.20;19.10;102157.00;;;;4990962;28;20157;-48
2022/03/23 04:22:21;;;;;;;3.97;3.67;;;18.20;47.20;19.00;102172.00;;;;4990108;28;20536;-48
2022/03/23 04:24:47;;;;;;;4.27;3.90;;;18.10;47.20;19.00;102177.00;;;;4990541;28;20175;-46
2022/03/23 04:27:13;;;;;;;4.37;3.97;;;18.10;47.20;19.00;102177.00;;;;4990540;28;20191;-45
2022/03/23 04:29:40;;;;;;;5.20;3.67;;;18.10;47.30;19.00;102173.00;;;;4989654;28;20184;-47
2022/03/23 04:32:07;;;;;;;4.97;3.93;;;18.00;47.50;19.00;102173.00;;;;4990194;28;20160;-47
2022/03/23 04:34:34;;;;;;;4.57;3.90;;;18.00;48.00;18.90;102180.00;;;;4990105;28;20593;-47
2022/03/23 04:37:00;;;;;;;5.87;4.00;;;18.00;47.60;18.90;102178.00;;;;4988661;28;20203;-45
2022/03/23 04:39:26;;;;;;;5.07;3.93;;;18.00;47.30;19.00;102190.00;;;;4990715;28;20182;-48
2022/03/23 04:41:52;;;;;;;6.07;3.93;;;18.00;47.20;18.90;102183.00;;;;4989860;28;20178;-47
2022/03/23 04:44:17;;;;;;;4.23;3.80;;;18.00;47.10;18.90;102177.00;;;;4987002;28;20194;-46
2022/03/23 04:46:43;;;;;;;8.10;4.03;;;18.00;47.10;18.90;102192.00;;;;4989465;28;20187;-46
2022/03/23 04:49:09;;;;;;;4.50;4.10;;;17.90;47.10;18.90;102189.00;;;;4997624;28;20177;-47
2022/03/23 04:51:35;;;;;;;4.30;4.00;;;17.90;47.00;18.90;102190.00;;;;4990766;28;20168;-48
2022/03/23 04:54:02;;;;;;;5.70;3.97;;;17.90;47.00;18.90;102182.00;;;;4989711;28;20763;-48
2022/03/23 04:56:27;;;;;;;4.40;4.00;;;17.90;47.00;18.90;102175.00;;;;4989241;28;20177;-46
2022/03/23 04:58:54;;;;;;;4.60;4.10;;;17.90;47.00;18.80;102180.00;;;;4989604;28;20196;-45
2022/03/23 05:01:23;;;;;;;5.00;4.07;;;17.80;46.90;18.80;102178.00;;;;4987703;28;20179;-48
2022/03/23 05:03:49;;;;;;;4.10;3.80;;;17.80;46.80;18.80;102184.00;;;;4989935;28;20364;-46
2022/03/23 05:06:14;;;;;;;4.03;3.73;;;17.80;46.80;18.80;102185.00;;;;4989330;28;20171;-47
2022/03/23 05:08:40;;;;;;;4.40;4.00;;;17.80;46.80;18.80;102189.00;;;;4989808;28;20227;-47
2022/03/23 05:11:06;;;;;;;4.37;4.00;;;17.80;46.70;18.80;102190.00;;;;4989256;28;20620;-47
2022/03/23 05:13:33;;;;;;;4.20;3.90;;;17.80;46.70;18.70;102197.00;;;;4989375;28;20190;-48
2022/03/23 05:15:59;;;;;;;4.20;3.90;;;17.80;46.70;18.70;102198.00;;;;4988188;28;20183;-48
2022/03/23 05:18:25;;;;;;;5.47;3.90;;;17.70;46.70;18.70;102194.00;;;;4989557;28;20192;-46
2022/03/23 05:20:51;;;;;;;4.53;4.03;;;17.70;46.60;18.70;102195.00;;;;4988947;28;20299;-47
2022/03/23 05:23:16;;;;;;;5.70;4.20;;;17.80;46.60;18.70;102199.00;;;;4988615;28;20185;-45
2022/03/23 05:25:42;;;;;;;5.03;3.70;;;17.70;46.60;18.70;102195.00;;;;4988537;28;20183;-47
2022/03/23 05:28:08;;;;;;;8.63;4.23;;;17.70;46.80;18.60;102202.00;;;;4991353;28;20555;-47
2022/03/23 05:30:35;;;;;;;4.77;4.03;;;17.70;46.80;18.60;102196.00;;;;4990461;28;20187;-46
2022/03/23 05:33:01;;;;;;;5.43;4.03;;;17.70;46.70;18.60;102201.00;;;;4991352;28;20189;-47
2022/03/23 05:35:27;;;;;;;5.90;3.90;;;17.60;46.70;18.60;102199.00;;;;4989509;28;20169;-44
2022/03/23 05:37:52;;;;;;;5.90;3.90;;;17.60;46.60;18.60;102206.00;;;;4989236;28;20198;-47
2022/03/23 05:40:20;;;;;;;4.53;4.00;;;17.60;46.70;18.60;102196.00;;;;4987322;28;20173;-48
2022/03/23 05:42:45;;;;;;;4.20;3.80;;;17.60;46.70;18.60;102201.00;;;;4988970;28;20184;-48
2022/03/23 05:45:11;;;;;;;5.47;4.23;;;17.60;46.70;18.50;102200.00;;;;4988091;28;20176;-46
2022/03/23 05:47:37;;;;;;;4.13;3.73;;;17.60;46.80;18.50;102204.00;;;;4988994;28;20196;-48
2022/03/23 05:50:04;;;;;;;4.67;3.87;;;17.60;46.70;18.50;102197.00;;;;4987460;28;20249;-47
2022/03/23 05:52:29;;;;;;;5.23;4.00;;;17.60;46.70;18.50;102204.00;;;;4988729;28;20232;-47
2022/03/23 05:54:55;;;;;;;3.93;3.63;;;17.50;46.90;18.50;102201.00;;;;4989123;28;20174;-48
2022/03/23 05:57:21;;;;;;;4.10;3.80;;;17.50;46.60;18.50;102207.00;;;;4988747;28;21021;-47
2022/03/23 05:59:47;;;;;;;4.20;3.80;;;17.50;46.60;18.50;102202.00;;;;4988770;28;20589;-47
2022/03/23 06:02:12;;;;;;;4.10;3.80;;;17.50;46.70;18.40;102213.00;;;;4988859;28;20164;-46
2022/03/23 06:04:38;;;;;;;4.27;3.97;;;17.50;46.70;18.40;102209.00;;;;4989632;28;20679;-49
2022/03/23 06:07:04;;;;;;;4.23;3.93;;;17.50;47.30;18.40;102210.00;;;;4988539;28;20194;-47
2022/03/23 06:09:30;;;;;;;4.17;3.70;;;17.50;46.70;18.40;102202.00;;;;4987274;28;20189;-47
2022/03/23 06:11:57;;;;;;;4.20;3.70;;;17.40;46.60;18.40;102208.00;;;;4987265;28;20319;-47
2022/03/23 06:14:23;;;;;;;5.37;4.00;;;17.40;46.60;18.40;102203.00;;;;4909957;28;20251;-49
2022/03/23 06:16:50;;;;;;;4.67;4.27;;;17.40;46.60;18.40;102207.00;;;;4987536;28;20205;-49
2022/03/23 06:19:15;;;;;;;4.23;3.83;;;17.40;46.60;18.40;102213.00;;;;4988367;28;20203;-47
2022/03/23 06:21:41;;;;;;;4.70;3.90;;;17.40;46.60;18.30;102204.00;;;;4988208;28;20205;-48
2022/03/23 06:24:07;;;;;;;4.27;3.90;;;17.30;46.50;18.30;102206.00;;;;4987765;28;20226;-46
2022/03/23 06:26:33;;;;;;;4.40;4.00;;;17.30;46.60;18.30;102219.00;;;;4988536;28;20179;-49
2022/03/23 06:28:59;;;;;;;4.40;4.00;;;17.30;46.50;18.30;102221.00;;;;4988000;28;20255;-47
2022/03/23 06:31:24;;;;;;;4.47;4.07;;;17.30;46.50;18.30;102212.00;;;;4994884;28;20180;-46
2022/03/23 06:33:50;;;;;;;4.17;3.87;;;17.30;46.50;18.30;102211.00;;;;5002141;28;20590;-47
2022/03/23 06:36:16;;;;;;;3.87;3.53;;;17.30;46.60;18.30;102217.00;;;;4987491;28;20227;-46
2022/03/23 06:38:41;;;;;;;4.20;3.90;;;17.30;46.60;18.30;102220.00;;;;5008041;28;20205;-46
2022/03/23 06:41:07;;;;;;;4.07;3.73;;;17.30;46.60;18.20;102221.00;;;;5007047;28;20563;-47
2022/03/23 06:43:33;;;;;;;4.60;4.20;;;17.20;46.40;18.20;102229.00;;;;5007927;28;20184;-47
2022/03/23 06:46:00;;;;;;;4.20;3.90;;;17.20;46.50;18.20;102230.00;;;;5007622;28;20172;-47
2022/03/23 06:48:25;;;;;;;4.40;4.10;;;17.20;46.50;18.20;102230.00;;;;5008184;28;20223;-46
2022/03/23 06:50:51;;;;;;;4.47;4.10;;;17.20;46.60;18.20;102244.00;;;;5007374;28;20901;-47
2022/03/23 06:53:17;;;;;;;4.10;3.80;;;17.20;46.50;17.90;102248.00;;;;5008310;28;20208;-47
2022/03/23 06:55:42;;;;;;;4.07;3.67;;;17.20;46.50;18.10;102241.00;;;;5007890;28;20184;-46
2022/03/23 06:58:08;;;;;;;4.20;3.90;;;17.10;46.50;18.10;102237.00;;;;5006297;28;20675;-47
2022/03/23 07:00:34;;;;;;;4.20;3.87;;;17.20;46.60;18.10;102238.00;;;;5009699;28;20186;-46
2022/03/23 07:03:00;;;;;;;4.20;3.80;;;17.10;46.40;18.10;102236.00;;;;5009459;28;20176;-47
2022/03/23 07:05:25;;;;;;;4.60;4.20;;;17.10;46.60;18.10;102234.00;;;;5007800;28;20185;-46
2022/03/23 07:10:36;;;;;;;4.20;3.90;;;17.00;46.40;18.10;102239.00;;;;4992428;28;20203;-46
2022/03/23 07:13:02;;;;;;;4.10;3.80;;;17.10;46.40;18.00;102245.00;;;;4987757;28;20194;-46
2022/03/23 07:15:28;;;;;;;4.90;4.40;;;17.00;46.40;18.10;102243.00;;;;4988383;28;20187;-47
2022/03/23 07:17:54;;;;;;;4.10;3.80;;;17.10;46.50;18.00;102248.00;;;;4987351;28;20193;-47
2022/03/23 07:20:20;;;;;;;4.27;3.97;;;17.00;46.40;18.00;102249.00;;;;4987622;28;20710;-48
2022/03/23 07:22:45;;;;;;;4.23;3.90;;;17.00;46.40;18.00;102248.00;;;;4987552;28;20436;-46
2022/03/23 07:25:11;;;;;;;4.17;3.83;;;17.00;46.40;18.00;102241.00;;;;4904290;28;22306;-46
2022/03/23 07:27:37;;;;;;;4.37;3.97;;;17.00;46.50;18.00;102247.00;;;;4987116;28;20241;-47
2022/03/23 07:30:04;;;;;;;4.60;4.20;;;17.00;46.50;18.00;102250.00;;;;4992024;28;20264;-46
2022/03/23 07:32:30;;;;;;;4.13;3.83;;;17.00;46.50;18.00;102241.00;;;;5005712;28;20204;-47
2022/03/23 07:34:55;;;;;;;4.40;4.10;;;17.00;46.50;17.90;102249.00;;;;5001244;28;20218;-45
2022/03/23 07:37:21;;;;;;;4.10;3.80;;;17.00;46.50;17.90;102256.00;;;;4986823;28;20262;-46
2022/03/23 07:39:47;;;;;;;4.10;3.80;;;17.00;46.50;17.90;102251.00;;;;4987314;28;20868;-45
2022/03/23 07:42:13;;;;;;;4.40;4.00;;;16.90;46.50;17.90;102248.00;;;;4992005;28;20205;-47
2022/03/23 07:44:38;;;;;;;4.40;4.10;;;17.00;46.60;17.90;102243.00;;;;4995194;28;20512;-49
2022/03/23 07:47:10;;;;;;;4.37;3.97;;;16.90;46.50;17.90;102255.00;;;;4988558;28;20223;-46
2022/03/23 07:49:35;;;;;;;4.53;4.13;;;16.90;46.60;17.80;102257.00;;;;4992735;28;20524;-46
2022/03/23 07:52:02;;;;;;;4.40;4.00;;;16.90;46.60;17.80;102253.00;;;;4992190;28;20374;-47
2022/03/23 07:54:28;;;;;;;4.30;4.00;;;16.90;46.60;17.80;102252.00;;;;4992547;28;20247;-45
2022/03/23 07:56:53;;;;;;;4.40;4.00;;;16.90;46.70;17.80;102253.00;;;;4992512;28;20203;-47
2022/03/23 07:59:19;;;;;;;4.17;3.87;;;16.90;46.60;17.80;102254.00;;;;4992664;28;20169;-46
2022/03/23 08:01:45;;;;;;;3.97;3.57;;;16.90;46.70;17.80;102252.00;;;;4992010;28;20765;-47
2022/03/23 08:04:11;;;;;;;4.57;3.93;;;16.90;47.30;17.80;102260.00;;;;4992391;28;20188;-47
2022/03/23 08:06:37;;;;;;;4.30;3.90;;;16.90;47.30;17.80;102259.00;;;;4991487;28;20207;-49
2022/03/23 08:09:03;;;;;;;4.47;4.07;;;16.90;47.20;17.80;102268.00;;;;4992303;28;20208;-47
2022/03/23 08:11:29;;;;;;;5.00;4.00;;;16.90;47.80;17.80;102272.00;;;;4991574;28;20191;-45
2022/03/23 08:13:55;;;;;;;7.00;4.10;;;16.90;47.30;17.80;102272.00;;;;4992009;28;20783;-46
2022/03/23 08:16:21;;;;;;;4.40;4.00;;;16.90;47.40;17.80;102274.00;;;;4991933;28;20179;-47
2022/03/23 08:18:47;;;;;;;4.73;4.23;;;16.80;47.60;17.70;102267.00;;;;4997246;28;20187;-47
2022/03/23 08:21:13;;;;;;;4.73;4.27;;;16.80;47.60;17.70;102270.00;;;;5010855;28;20171;-47
2022/03/23 08:23:40;;;;;;;4.53;4.13;;;16.80;47.60;17.70;102284.00;;;;5011630;28;20171;-46
2022/03/23 08:26:09;;;;;;;4.53;4.23;;;16.80;47.60;17.70;102277.00;;;;4904663;28;20255;-45
2022/03/23 08:28:35;;;;;;;4.50;4.10;;;16.80;47.60;17.70;102268.00;;;;4991001;28;20204;-45
2022/03/23 08:31:01;;;;;;;5.03;4.33;;;16.80;47.60;17.70;102270.00;;;;4990206;28;20295;-47
2022/03/23 08:33:30;;;;;;;5.37;4.50;;;16.80;47.60;17.70;102270.00;;;;4991510;28;20707;-47
2022/03/23 08:35:56;;;;;;;4.83;4.43;;;16.80;47.60;17.70;102275.00;;;;4992145;28;20196;-50
2022/03/23 08:38:22;;;;;;;5.10;4.60;;;16.80;47.60;17.70;102278.00;;;;4996134;28;20203;-49
2022/03/23 08:40:47;;;;;;;6.77;4.53;;;16.80;47.60;17.70;102267.00;;;;4996814;28;20738;-47
2022/03/23 08:43:13;;;;;;;7.17;4.90;;;16.80;47.60;17.70;102272.00;;;;4994848;28;20179;-48
2022/03/23 08:45:39;;;;;;;8.93;4.87;;;16.80;47.80;17.60;102272.00;;;;4993510;28;20203;-47
2022/03/23 08:48:04;;;;;;;7.27;4.90;;;16.80;48.30;17.60;102274.00;;;;4992129;28;20192;-50
2022/03/23 08:50:30;;;;;;;6.50;4.17;;;16.90;48.50;17.70;102275.00;;;;4991480;28;20222;-49
2022/03/23 08:52:56;;;;;;;7.70;4.40;;;17.10;48.30;17.70;102274.00;;;;4989800;28;20224;-49
2022/03/23 08:55:24;;;;;;;7.27;4.50;;;17.40;48.10;17.80;102277.00;;;;4991293;28;20177;-46
2022/03/23 08:57:50;;;;;;;7.80;4.23;;;17.60;47.70;18.00;102277.00;;;;4991219;28;20192;-48
2022/03/23 09:00:16;;;;;;;5.93;4.40;;;17.80;47.40;18.10;102272.00;;;;4988937;28;20696;-46
2022/03/23 09:02:42;;;;;;;5.43;4.30;;;18.00;47.30;18.20;102272.00;;;;4990533;28;20196;-46
2022/03/23 09:05:10;;;;;;;5.23;4.20;;;18.10;47.20;18.30;102265.00;;;;4990588;28;20826;-46
2022/03/23 09:07:37;;;;;;;6.47;4.50;;;18.10;47.10;18.30;102266.00;;;;4990515;28;20235;-47
2022/03/23 09:10:04;;;;;;;4.57;4.17;;;18.20;47.30;18.40;102270.00;;;;4990239;28;20719;-48
2022/03/23 09:12:30;;;;;;;9.00;4.27;;;18.20;47.30;18.40;102266.00;;;;4990704;28;20165;-47
2022/03/23 09:14:56;;;;;;;7.37;4.37;;;18.20;47.60;18.50;102268.00;;;;4990573;28;20313;-47
2022/03/23 09:17:22;;;;;;;7.77;4.27;;;18.20;47.90;18.50;102276.00;;;;4990758;28;20196;-47
2022/03/23 09:19:48;;;;;;;6.43;4.27;;;18.30;48.00;18.60;102269.00;;;;5004475;28;20354;-47
2022/03/23 09:22:14;;;;;;;8.63;4.30;;;18.30;48.10;18.60;102264.00;;;;5009805;28;20834;-46
2022/03/23 09:24:39;;;;;;;8.80;4.63;;;18.30;48.10;18.70;102273.00;;;;5010280;28;20532;-45
2022/03/23 09:27:05;;;;;;;7.63;4.47;;;18.30;48.30;18.70;102257.00;;;;4901149;28;20249;-48
2022/03/23 09:29:31;;;;;;;4.53;4.00;;;18.30;48.30;18.70;102260.00;;;;4989281;28;20259;-45
2022/03/23 09:31:57;;;;;;;5.70;4.20;;;18.30;48.40;18.70;102261.00;;;;4990639;28;20185;-48
2022/03/23 09:34:23;;;;;;;8.00;4.20;;;18.30;48.60;18.80;102261.00;;;;4988811;28;20200;-48
2022/03/23 09:39:33;;;;;;;9.70;4.40;;;18.40;48.90;18.80;102261.00;;;;4990733;28;20234;-49
2022/03/23 09:41:59;;;;;;;6.53;4.30;;;18.40;48.90;18.80;102251.00;;;;4989502;28;20709;-47
2022/03/23 09:44:29;;;;;;;4.47;3.90;;;18.40;48.90;18.80;102253.00;;;;4990402;28;20276;-47
2022/03/23 09:46:56;;;;;;;5.87;4.50;;;18.40;48.90;18.90;102258.00;;;;4990093;28;20499;-45
2022/03/23 09:49:23;;;;;;;8.53;4.10;;;18.40;48.90;18.90;102254.00;;;;4989172;28;20201;-48
2022/03/23 09:51:53;;;;;;;7.63;4.73;;;18.40;48.90;18.90;102257.00;;;;4989465;28;20212;-46
2022/03/23 09:54:20;;;;;;;6.97;4.40;;;18.50;49.20;18.90;102252.00;;;;4989934;28;20212;-48
2022/03/23 09:56:45;;;;;;;5.63;4.30;;;18.50;49.40;18.90;102253.00;;;;4989665;28;20235;-47
2022/03/23 09:59:11;;;;;;;5.97;4.37;;;18.40;49.50;18.90;102232.00;;;;4989548;28;20179;-46
2022/03/23 10:02:01;;;;;;;6.97;4.13;;;18.40;49.40;18.90;102256.00;;;;4988116;28;20176;-47
2022/03/23 10:04:51;;;;;;;5.73;4.40;;;18.40;49.50;18.90;102251.00;;;;4989761;28;20184;-47
2022/03/23 10:07:46;;;;;;;6.37;4.20;;;18.40;49.80;19.00;102256.00;;;;4989883;28;20279;-48
2022/03/23 10:10:30;;;;;;;7.33;4.37;;;18.40;49.80;18.90;102249.00;;;;4989181;28;20602;-46
2022/03/23 10:13:53;;;;;;;5.53;4.40;;;18.50;50.00;19.00;102252.00;;;;4989509;28;20261;-47
2022/03/23 10:17:08;;;;;;;8.73;4.73;;;18.40;50.10;18.90;102126.00;;;;4989861;28;20183;-46
2022/03/23 10:19:33;;;;;;;5.40;4.30;;;18.40;50.10;18.90;102246.00;;;;5003720;28;20233;-47
2022/03/23 10:22:10;;;;;;;6.00;4.60;;;18.40;50.10;18.90;102244.00;;;;5008918;28;20185;-47
2022/03/23 10:24:36;;;;;;;4.83;4.23;;;18.40;50.20;18.90;102246.00;;;;5009587;28;20210;-46
2022/03/23 10:27:10;;;;;;;5.67;4.60;;;18.40;51.00;19.00;102245.00;;;;4852914;28;20577;-46
2022/03/23 10:29:44;;;;;;;6.50;4.77;;;18.40;50.40;19.00;102245.00;;;;4970277;28;20249;-47
2022/03/23 10:32:10;;;;;;;6.07;4.17;;;18.40;50.40;19.00;102244.00;;;;4969130;28;20513;-48
2022/03/23 10:34:49;;;;;;;6.90;4.23;;;18.40;50.40;19.00;102174.00;;;;4969794;28;20208;-44
2022/03/23 10:37:31;;;;;;;6.83;4.40;;;18.40;50.30;19.00;102240.00;;;;4969745;28;20694;-46
2022/03/23 10:40:07;;;;;;;6.67;4.53;;;18.50;50.30;19.00;102244.00;;;;4969680;28;20660;-47
2022/03/23 10:42:37;;;;;;;5.37;4.27;;;18.40;49.70;19.00;102236.00;;;;4968556;28;20193;-46
2022/03/23 10:45:12;;;;;;;7.20;4.50;;;18.50;50.30;19.00;102238.00;;;;4968122;28;20253;-49
2022/03/23 10:47:39;;;;;;;5.93;4.30;;;18.40;50.40;19.10;102218.00;;;;4969392;28;20193;-47
2022/03/23 10:50:11;;;;;;;6.07;4.30;;;18.50;50.60;19.10;102235.00;;;;4969615;28;20176;-47
2022/03/23 10:52:51;;;;;;;4.73;4.23;;;18.50;50.70;19.10;102236.00;;;;4969254;28;20178;-47
2022/03/23 10:55:17;;;;;;;8.50;4.40;;;18.50;50.70;19.10;102233.00;;;;4968954;28;20166;-47
2022/03/23 10:58:04;;;;;;;5.57;4.63;;;18.50;50.60;19.10;102239.00;;;;4988003;28;20275;-47
2022/03/23 11:00:38;;;;;;;9.50;4.93;;;18.50;50.60;19.10;102229.00;;;;4987277;28;20257;-46
2022/03/23 11:03:05;;;;;;;9.37;5.10;;;18.50;51.20;19.10;102228.00;;;;5001771;28;20176;-47